createdAt,value
2023-02-19T00:00:48.029Z,65.73
2023-02-19T00:03:59.103Z,66.44
2023-02-19T00:07:01.344Z,66.38
2023-02-19T00:10:03.992Z,66.52
2023-02-19T00:13:06.218Z,66.54
2023-02-19T00:16:14.383Z,66.18
2023-02-19T00:19:19.368Z,66.78
2023-02-19T00:22:21.830Z,66.80
2023-02-19T00:25:24.057Z,66.72
2023-02-19T00:28:26.479Z,66.83
2023-02-19T00:31:32.529Z,66.66
2023-02-19T00:34:36.124Z,67.06
2023-02-19T00:37:38.349Z,67.00
2023-02-19T00:40:40.834Z,66.90
2023-02-19T00:43:43.054Z,67.14
2023-02-19T00:46:47.686Z,66.33
2023-02-19T00:49:49.893Z,66.77
2023-02-19T00:52:52.378Z,66.63
2023-02-19T00:55:54.580Z,67.08
2023-02-19T00:58:57.317Z,66.84
2023-02-19T01:01:59.615Z,66.26
2023-02-19T01:05:02.191Z,66.32
2023-02-19T01:08:04.483Z,66.75
2023-02-19T01:11:08.731Z,66.64
2023-02-19T01:14:11.288Z,66.69
2023-02-19T01:17:13.957Z,66.95
2023-02-19T01:20:16.499Z,66.53
2023-02-19T01:23:18.988Z,66.74
2023-02-19T01:26:25.303Z,66.29
2023-02-19T01:29:27.926Z,66.24
2023-02-19T01:32:30.171Z,66.56
2023-02-19T01:35:33.078Z,67.23
2023-02-19T01:38:35.277Z,67.06
2023-02-19T01:41:40.700Z,67.11
2023-02-19T01:44:42.840Z,68.28
2023-02-19T01:47:47.060Z,68.14
2023-02-19T01:50:54.419Z,68.15
2023-02-19T01:54:01.156Z,68.10
2023-02-19T01:57:08.116Z,69.01
2023-02-19T02:00:14.193Z,69.94
2023-02-19T02:03:17.015Z,71.00
2023-02-19T02:06:26.027Z,71.19
2023-02-19T02:09:49.520Z,70.30
2023-02-19T02:12:57.468Z,70.26
2023-02-19T02:16:22.120Z,70.73
2023-02-19T02:19:30.367Z,70.96
2023-02-19T02:22:49.672Z,70.45
2023-02-19T02:25:59.921Z,70.54
2023-02-19T02:29:20.931Z,70.47
2023-02-19T02:32:33.402Z,70.19
2023-02-19T02:35:48.758Z,70.15
2023-02-19T02:38:54.096Z,69.87
2023-02-19T02:42:18.723Z,69.70
2023-02-19T02:45:35.907Z,69.96
2023-02-19T02:48:41.261Z,70.87
2023-02-19T02:51:49.828Z,70.16
2023-02-19T02:55:04.379Z,71.12
2023-02-19T02:58:07.960Z,70.44
2023-02-19T03:01:43.883Z,71.45
2023-02-19T03:05:23.889Z,71.93
2023-02-19T03:08:36.984Z,72.77
2023-02-19T03:12:02.292Z,73.84
2023-02-19T03:15:28.191Z,74.38
2023-02-19T03:18:51.853Z,75.05
2023-02-19T03:22:24.864Z,75.38
2023-02-19T03:25:49.980Z,75.74
2023-02-19T03:29:12.774Z,76.10
2023-02-19T03:32:23.896Z,76.65
2023-02-19T03:35:30.559Z,75.50
2023-02-19T03:38:42.335Z,76.42
2023-02-19T03:41:57.915Z,77.02
2023-02-19T03:45:35.194Z,76.46
2023-02-19T03:49:18.550Z,75.88
2023-02-19T03:52:37.987Z,76.45
2023-02-19T03:56:14.166Z,76.60
2023-02-19T03:59:28.521Z,76.37
2023-02-19T04:02:44.426Z,76.35
2023-02-19T04:05:53.394Z,75.44
2023-02-19T04:09:00.433Z,73.75
2023-02-19T04:12:06.172Z,74.42
2023-02-19T04:15:14.636Z,74.66
2023-02-19T04:18:22.755Z,74.44
2023-02-19T04:21:26.642Z,73.96
2023-02-19T04:24:37.741Z,73.88
2023-02-19T04:27:41.235Z,73.37
2023-02-19T04:30:44.241Z,72.99
2023-02-19T04:33:46.885Z,73.56
2023-02-19T04:36:49.435Z,73.62
2023-02-19T04:39:51.560Z,72.83
2023-02-19T04:42:54.054Z,73.64
2023-02-19T04:46:00.347Z,73.62
2023-02-19T04:49:03.114Z,74.36
2023-02-19T04:52:05.300Z,73.84
2023-02-19T04:55:08.684Z,74.46
2023-02-19T04:58:10.837Z,74.88
2023-02-19T05:01:14.640Z,76.37
2023-02-19T05:04:16.960Z,79.01
2023-02-19T05:07:19.321Z,79.64
2023-02-19T05:10:21.545Z,81.02
2023-02-19T05:13:24.114Z,82.59
2023-02-19T05:16:26.388Z,83.29
2023-02-19T05:19:28.873Z,83.37
2023-02-19T05:22:31.009Z,83.19
2023-02-19T05:25:33.486Z,83.13
2023-02-19T05:28:36.040Z,83.42
2023-02-19T05:31:38.633Z,82.92
2023-02-19T05:34:40.888Z,83.15
2023-02-19T05:37:43.348Z,82.38
2023-02-19T05:40:46.505Z,82.73
2023-02-19T05:43:49.206Z,83.37
2023-02-19T05:46:51.410Z,84.00
2023-02-19T05:49:53.884Z,85.32
2023-02-19T05:52:56.065Z,86.08
2023-02-19T05:55:59.019Z,86.50
2023-02-19T05:59:04.984Z,87.32
2023-02-19T06:02:07.527Z,88.28
2023-02-19T06:05:10.817Z,88.62
2023-02-19T06:08:14.127Z,89.07
2023-02-19T06:11:17.108Z,89.18
2023-02-19T06:14:19.280Z,89.97
2023-02-19T06:17:21.723Z,89.90
2023-02-19T06:20:26.031Z,89.91
2023-02-19T06:23:29.827Z,90.03
2023-02-19T06:26:31.998Z,90.61
2023-02-19T06:29:34.756Z,90.08
2023-02-19T06:32:37.049Z,90.57
2023-02-19T06:35:39.510Z,91.40
2023-02-19T06:38:42.104Z,92.05
2023-02-19T06:41:44.587Z,92.42
2023-02-19T06:44:46.785Z,93.26
2023-02-19T06:47:49.304Z,93.77
2023-02-19T06:50:51.491Z,93.69
2023-02-19T06:53:54.025Z,94.22
2023-02-19T06:56:58.919Z,93.97
2023-02-19T07:00:01.400Z,94.15
2023-02-19T07:03:05.473Z,94.87
2023-02-19T07:06:08.580Z,94.64
2023-02-19T07:09:11.248Z,94.48
2023-02-19T07:12:13.796Z,93.96
2023-02-19T07:15:15.935Z,93.92
2023-02-19T07:18:19.288Z,93.63
2023-02-19T07:21:21.463Z,93.99
2023-02-19T07:24:23.938Z,93.79
2023-02-19T07:27:26.084Z,93.20
2023-02-19T07:30:28.592Z,92.24
2023-02-19T07:33:30.974Z,92.08
2023-02-19T07:36:33.441Z,90.65
2023-02-19T07:39:35.657Z,90.46
2023-02-19T07:42:38.151Z,89.49
2023-02-19T07:45:41.150Z,89.27
2023-02-19T07:48:44.480Z,89.46
2023-02-19T07:51:46.683Z,88.46
2023-02-19T07:54:49.240Z,88.66
2023-02-19T07:57:51.403Z,88.38
2023-02-19T08:00:53.938Z,88.56
2023-02-19T08:03:56.461Z,88.87
2023-02-19T08:06:58.660Z,89.06
2023-02-19T08:10:20.354Z,89.99
2023-02-19T08:13:23.504Z,92.17
2023-02-19T08:16:41.945Z,94.67
2023-02-19T08:19:44.942Z,95.41
2023-02-19T08:22:47.424Z,99.34
2023-02-19T08:25:51.448Z,100.00
2023-02-19T08:28:53.929Z,100.00
2023-02-19T08:31:56.137Z,100.00
2023-02-19T08:34:58.593Z,100.00
2023-02-19T08:38:00.736Z,100.00
2023-02-19T08:41:08.868Z,100.00
2023-02-19T08:44:11.338Z,100.00
2023-02-19T08:47:13.849Z,100.00
2023-02-19T08:50:16.056Z,100.00
2023-02-19T08:53:18.737Z,100.00
2023-02-19T08:56:21.002Z,100.00
2023-02-19T08:59:23.787Z,100.00
2023-02-19T09:02:26.063Z,100.00
2023-02-19T09:05:28.591Z,100.00
2023-02-19T09:08:30.852Z,100.00
2023-02-19T09:11:33.320Z,100.00
2023-02-19T09:14:36.501Z,100.00
2023-02-19T09:17:39.172Z,100.00
2023-02-19T09:20:41.398Z,100.00
2023-02-19T09:23:43.895Z,100.00
2023-02-19T09:26:49.709Z,100.00
2023-02-19T09:29:52.166Z,100.00
2023-02-19T09:32:54.389Z,100.00
2023-02-19T09:36:00.401Z,100.00
2023-02-19T09:39:04.506Z,100.00
2023-02-19T09:42:20.845Z,100.00
2023-02-19T09:45:25.974Z,100.00
2023-02-19T09:48:28.918Z,100.00
2023-02-19T09:51:34.757Z,100.00
2023-02-19T09:54:38.645Z,100.00
2023-02-19T09:57:41.778Z,100.00
2023-02-19T10:00:48.976Z,100.00
2023-02-19T10:03:51.524Z,100.00
2023-02-19T10:06:58.955Z,100.00
2023-02-19T10:10:21.326Z,100.00
2023-02-19T10:13:30.357Z,96.83
2023-02-19T10:16:33.759Z,89.51
2023-02-19T10:19:36.588Z,85.04
2023-02-19T10:22:39.136Z,80.60
2023-02-19T10:25:49.153Z,74.52
2023-02-19T10:28:51.609Z,72.08
2023-02-19T10:32:13.381Z,74.52
2023-02-19T10:35:16.349Z,68.41
2023-02-19T10:38:23.683Z,69.43
2023-02-19T10:41:27.947Z,66.33
2023-02-19T10:44:39.162Z,68.93
2023-02-19T10:47:46.631Z,72.46
2023-02-19T10:50:55.961Z,71.42
2023-02-19T10:54:19.412Z,70.54
2023-02-19T10:57:29.843Z,70.18
2023-02-19T11:00:32.381Z,65.44
2023-02-19T11:03:34.565Z,65.16
2023-02-19T11:06:37.100Z,65.57
2023-02-19T11:09:42.659Z,63.70
2023-02-19T11:12:49.007Z,63.66
2023-02-19T11:15:54.275Z,60.00
2023-02-19T11:18:57.310Z,60.16
2023-02-19T11:22:01.186Z,57.35
2023-02-19T11:25:15.202Z,53.60
2023-02-19T11:28:18.176Z,51.64
2023-02-19T11:31:20.671Z,52.40
2023-02-19T11:34:30.071Z,50.11
2023-02-19T11:37:33.084Z,49.42
2023-02-19T11:40:41.499Z,49.23
2023-02-19T11:44:08.726Z,48.48
2023-02-19T11:47:46.417Z,46.14
2023-02-19T11:51:04.488Z,45.31
2023-02-19T11:54:29.800Z,46.53
2023-02-19T11:57:37.925Z,44.78
2023-02-19T12:00:51.993Z,45.63
2023-02-19T12:04:32.291Z,46.96
2023-02-19T12:07:57.374Z,46.68
2023-02-19T12:11:21.330Z,45.86
2023-02-19T12:14:42.166Z,45.27
2023-02-19T12:18:06.499Z,45.21
2023-02-19T12:21:27.194Z,44.97
2023-02-19T12:24:51.603Z,44.26
2023-02-19T12:28:25.598Z,44.86
2023-02-19T12:31:55.881Z,43.28
2023-02-19T12:35:32.206Z,42.84
2023-02-19T12:38:49.288Z,42.58
2023-02-19T12:42:08.250Z,43.96
2023-02-19T12:45:25.110Z,44.26
2023-02-19T12:48:42.997Z,44.83
2023-02-19T12:51:49.605Z,43.92
2023-02-19T12:54:55.962Z,46.96
2023-02-19T12:58:04.417Z,46.50
2023-02-19T13:01:11.126Z,50.25
2023-02-19T13:04:29.886Z,60.90
2023-02-19T13:07:52.954Z,78.36
2023-02-19T13:11:01.227Z,86.31
2023-02-19T13:14:30.948Z,89.40
2023-02-19T13:17:50.685Z,94.93
2023-02-19T13:20:55.323Z,93.39
2023-02-19T13:24:03.031Z,89.82
2023-02-19T13:27:24.067Z,89.19
2023-02-19T13:30:34.579Z,85.25
2023-02-19T13:33:36.720Z,81.81
2023-02-19T13:36:39.844Z,76.22
2023-02-19T13:40:05.056Z,68.16
2023-02-19T13:43:24.680Z,67.27
2023-02-19T13:46:37.193Z,60.49
2023-02-19T13:49:42.125Z,63.03
2023-02-19T13:52:44.522Z,68.29
2023-02-19T13:55:51.967Z,73.89
2023-02-19T13:59:35.628Z,74.04
2023-02-19T14:02:38.178Z,77.38
2023-02-19T14:06:10.968Z,85.81
2023-02-19T14:09:37.916Z,96.76
2023-02-19T14:12:40.428Z,98.04
2023-02-19T14:15:49.040Z,100.00
2023-02-19T14:18:52.775Z,100.00
2023-02-19T14:21:55.208Z,100.00
2023-02-19T14:24:58.597Z,100.00
2023-02-19T14:28:06.605Z,100.00
2023-02-19T14:31:11.932Z,100.00
2023-02-19T14:34:22.493Z,100.00
2023-02-19T14:37:25.773Z,100.00
2023-02-19T14:40:36.457Z,100.00
2023-02-19T14:43:40.173Z,100.00
2023-02-19T14:47:00.633Z,93.60
2023-02-19T14:50:13.286Z,94.38
2023-02-19T14:53:16.743Z,91.96
2023-02-19T14:56:23.939Z,88.89
2023-02-19T14:59:30.526Z,89.75
2023-02-19T15:02:33.057Z,89.50
2023-02-19T15:05:37.341Z,89.93
2023-02-19T15:08:45.127Z,91.31
2023-02-19T15:11:48.167Z,90.66
2023-02-19T15:14:53.083Z,91.78
2023-02-19T15:17:56.908Z,92.50
2023-02-19T15:21:05.685Z,93.40
2023-02-19T15:24:08.099Z,88.99
2023-02-19T15:27:24.121Z,91.91
2023-02-19T15:30:29.529Z,91.30
2023-02-19T15:33:32.289Z,90.72
2023-02-19T15:36:35.279Z,89.00
2023-02-19T15:39:47.160Z,88.64
2023-02-19T15:42:49.627Z,87.57
2023-02-19T15:45:56.843Z,86.88
2023-02-19T15:49:12.466Z,85.28
2023-02-19T15:52:32.652Z,86.62
2023-02-19T15:55:45.704Z,85.92
2023-02-19T15:58:55.894Z,85.65
2023-02-19T16:02:00.746Z,86.30
2023-02-19T16:05:12.398Z,84.98
2023-02-19T16:08:17.661Z,84.96
2023-02-19T16:11:23.274Z,83.87
2023-02-19T16:14:31.722Z,82.71
2023-02-19T16:17:34.455Z,83.97
2023-02-19T16:20:36.763Z,82.97
2023-02-19T16:23:48.306Z,83.15
2023-02-19T16:26:50.964Z,82.98
2023-02-19T16:29:54.080Z,83.81
2023-02-19T16:33:31.953Z,83.72
2023-02-19T16:36:41.517Z,85.06
2023-02-19T16:39:43.988Z,84.17
2023-02-19T16:42:49.750Z,85.58
2023-02-19T16:45:52.004Z,86.58
2023-02-19T16:48:54.616Z,89.43
2023-02-19T16:51:59.582Z,93.62
2023-02-19T16:55:03.751Z,94.46
2023-02-19T16:58:06.019Z,93.32
2023-02-19T17:01:08.660Z,95.23
2023-02-19T17:04:12.640Z,93.01
2023-02-19T17:07:17.115Z,91.36
2023-02-19T17:10:24.661Z,89.51
2023-02-19T17:13:27.199Z,88.75
2023-02-19T17:16:34.276Z,88.04
2023-02-19T17:19:37.000Z,88.53
2023-02-19T17:22:39.241Z,88.49
2023-02-19T17:25:42.231Z,88.39
2023-02-19T17:28:44.440Z,88.47
2023-02-19T17:31:47.118Z,87.21
2023-02-19T17:34:49.739Z,85.08
2023-02-19T17:37:53.544Z,84.11
2023-02-19T17:40:55.777Z,82.44
2023-02-19T17:43:58.303Z,83.88
2023-02-19T17:47:01.725Z,83.66
2023-02-19T17:50:04.760Z,83.02
2023-02-19T17:53:07.009Z,82.14
2023-02-19T17:56:11.588Z,82.21
2023-02-19T17:59:14.805Z,83.09
2023-02-19T18:02:18.242Z,82.36
2023-02-19T18:05:21.550Z,79.62
2023-02-19T18:08:23.733Z,80.16
2023-02-19T18:11:26.213Z,81.02
2023-02-19T18:14:28.360Z,81.63
2023-02-19T18:17:30.988Z,82.68
2023-02-19T18:20:33.228Z,82.46
2023-02-19T18:23:36.207Z,83.10
2023-02-19T18:26:38.386Z,83.93
2023-02-19T18:29:41.028Z,85.17
2023-02-19T18:32:43.570Z,84.38
2023-02-19T18:35:49.182Z,83.91
2023-02-19T18:38:51.451Z,84.02
2023-02-19T18:41:54.037Z,84.01
2023-02-19T18:44:56.397Z,84.10
2023-02-19T18:47:58.902Z,82.85
2023-02-19T18:51:01.489Z,82.15
2023-02-19T18:54:04.882Z,82.88
2023-02-19T18:57:08.698Z,84.66
2023-02-19T19:00:17.392Z,84.21
2023-02-19T19:03:19.926Z,84.46
2023-02-19T19:06:22.486Z,84.23
2023-02-19T19:09:24.786Z,85.36
2023-02-19T19:12:27.256Z,84.37
2023-02-19T19:15:29.636Z,85.49
2023-02-19T19:18:32.264Z,84.05
2023-02-19T19:21:34.616Z,85.03
2023-02-19T19:24:37.197Z,85.53
2023-02-19T19:27:39.486Z,85.94
2023-02-19T19:30:42.196Z,86.35
2023-02-19T19:33:46.728Z,85.60
2023-02-19T19:36:49.349Z,86.92
2023-02-19T19:39:51.783Z,86.90
2023-02-19T19:42:54.398Z,87.98
2023-02-19T19:45:57.091Z,87.79
2023-02-19T19:48:59.993Z,87.78
2023-02-19T19:52:02.286Z,87.43
2023-02-19T19:55:06.051Z,88.55
2023-02-19T19:58:08.330Z,87.32
2023-02-19T20:01:11.398Z,86.84
2023-02-19T20:04:14.091Z,86.46
2023-02-19T20:07:16.474Z,86.05
2023-02-19T20:10:19.975Z,86.00
2023-02-19T20:13:26.394Z,85.58
2023-02-19T20:16:28.977Z,84.25
2023-02-19T20:19:31.296Z,84.34
2023-02-19T20:22:36.346Z,82.62
2023-02-19T20:25:38.685Z,82.74
2023-02-19T20:28:45.145Z,83.20
2023-02-19T20:31:51.812Z,82.52
2023-02-19T20:34:54.407Z,81.75
2023-02-19T20:37:56.807Z,81.71
2023-02-19T20:40:59.627Z,83.08
2023-02-19T20:44:02.152Z,82.96
2023-02-19T20:47:04.939Z,82.98
2023-02-19T20:50:07.788Z,81.22
2023-02-19T20:53:10.772Z,81.05
2023-02-19T20:56:13.449Z,81.01
2023-02-19T20:59:17.518Z,81.14
2023-02-19T21:02:24.746Z,81.56
2023-02-19T21:05:27.408Z,79.80
2023-02-19T21:08:29.935Z,78.51
2023-02-19T21:11:32.868Z,80.71
2023-02-19T21:14:35.152Z,81.44
2023-02-19T21:17:37.790Z,82.07
2023-02-19T21:20:40.186Z,82.42
2023-02-19T21:23:42.765Z,83.66
2023-02-19T21:26:45.128Z,82.78
2023-02-19T21:29:48.008Z,84.13
2023-02-19T21:32:50.272Z,83.30
2023-02-19T21:35:52.879Z,83.82
2023-02-19T21:38:55.118Z,84.01
2023-02-19T21:41:58.690Z,83.63
2023-02-19T21:45:00.869Z,83.61
2023-02-19T21:48:03.477Z,82.51
2023-02-19T21:51:05.953Z,81.82
2023-02-19T21:54:13.181Z,80.52
2023-02-19T21:57:15.446Z,80.56
2023-02-19T22:00:18.241Z,78.63
2023-02-19T22:03:20.863Z,77.03
2023-02-19T22:06:26.473Z,76.37
2023-02-19T22:09:30.377Z,75.39
2023-02-19T22:12:32.567Z,75.39
2023-02-19T22:15:35.098Z,75.05
2023-02-19T22:18:37.236Z,73.97
2023-02-19T22:21:44.014Z,73.37
2023-02-19T22:24:46.210Z,72.28
2023-02-19T22:27:49.061Z,70.86
2023-02-19T22:30:51.266Z,69.96
2023-02-19T22:33:55.719Z,69.40
2023-02-19T22:36:58.076Z,69.39
2023-02-19T22:40:00.914Z,68.44
2023-02-19T22:43:03.752Z,68.69
2023-02-19T22:46:19.160Z,68.07
2023-02-19T22:49:22.536Z,70.05
2023-02-19T22:52:28.206Z,68.63
2023-02-19T22:55:31.080Z,67.21
2023-02-19T22:58:33.608Z,68.24
2023-02-19T23:01:35.865Z,68.47
2023-02-19T23:04:38.453Z,68.89
2023-02-19T23:07:45.264Z,67.83
2023-02-19T23:10:47.795Z,67.34
2023-02-19T23:13:50.145Z,66.95
2023-02-19T23:16:52.676Z,67.46
2023-02-19T23:19:54.889Z,68.65
2023-02-19T23:22:57.720Z,65.81
2023-02-19T23:25:59.975Z,66.00
2023-02-19T23:29:03.325Z,65.81
2023-02-19T23:32:05.616Z,66.91
2023-02-19T23:35:08.255Z,65.41
2023-02-19T23:38:10.544Z,64.75
2023-02-19T23:41:16.070Z,64.22
2023-02-19T23:44:19.290Z,65.69
2023-02-19T23:47:22.483Z,64.59
2023-02-19T23:50:24.794Z,64.51
2023-02-19T23:53:27.372Z,64.28
2023-02-19T23:56:29.805Z,63.37
2023-02-19T23:59:32.479Z,64.70
